createdAt,value
2019-05-30T00:00:36.590Z,1.30
2019-05-30T00:02:42.295Z,1.27
2019-05-30T00:04:47.031Z,1.23
2019-05-30T00:06:51.812Z,1.30
2019-05-30T00:08:56.478Z,1.20
2019-05-30T00:11:01.168Z,1.53
2019-05-30T00:13:05.924Z,1.50
2019-05-30T00:15:10.665Z,1.20
2019-05-30T00:17:15.418Z,1.60
2019-05-30T00:19:20.209Z,1.20
2019-05-30T00:21:24.947Z,1.00
2019-05-30T00:23:29.640Z,1.57
2019-05-30T00:25:55.149Z,0.90
2019-05-30T00:28:01.109Z,1.00
2019-05-30T00:30:23.474Z,1.23
2019-05-30T00:32:13.225Z,0.80
2019-05-30T00:34:17.968Z,1.17
2019-05-30T00:36:22.785Z,0.80
2019-05-30T00:38:27.486Z,1.17
2019-05-30T00:40:32.370Z,0.77
2019-05-30T00:42:37.163Z,0.83
2019-05-30T00:44:42.025Z,0.70
2019-05-30T00:46:46.758Z,0.93
2019-05-30T00:48:51.479Z,2.13
2019-05-30T00:50:56.390Z,0.93
2019-05-30T00:53:01.191Z,0.80
2019-05-30T00:55:07.090Z,1.00
2019-05-30T00:57:11.893Z,0.77
2019-05-30T00:59:16.631Z,1.00
2019-05-30T01:01:22.093Z,2.37
2019-05-30T01:03:26.930Z,0.90
2019-05-30T01:05:31.687Z,1.40
2019-05-30T01:07:36.419Z,1.33
2019-05-30T01:09:42.348Z,1.13
2019-05-30T01:11:47.131Z,0.77
2019-05-30T01:13:51.901Z,1.40
2019-05-30T01:15:56.862Z,1.60
2019-05-30T01:18:03.110Z,1.80
2019-05-30T01:20:08.702Z,1.23
2019-05-30T01:22:13.815Z,0.73
2019-05-30T01:24:18.643Z,0.93
2019-05-30T01:26:23.297Z,0.90
2019-05-30T01:28:47.422Z,1.37
2019-05-30T01:31:00.247Z,1.10
2019-05-30T01:32:59.655Z,1.00
2019-05-30T01:35:05.736Z,0.80
2019-05-30T01:37:10.674Z,1.10
2019-05-30T01:39:15.343Z,1.63
2019-05-30T01:41:20.124Z,1.33
2019-05-30T01:43:25.357Z,0.97
2019-05-30T01:45:30.198Z,1.67
2019-05-30T01:47:34.968Z,0.80
2019-05-30T01:49:39.636Z,1.23
2019-05-30T01:51:45.368Z,1.07
2019-05-30T01:53:50.059Z,1.93
2019-05-30T01:55:54.734Z,1.10
2019-05-30T01:58:01.407Z,1.50
2019-05-30T02:00:19.983Z,1.13
2019-05-30T02:02:16.732Z,1.13
2019-05-30T02:04:21.465Z,1.17
2019-05-30T02:06:26.222Z,1.00
2019-05-30T02:08:30.883Z,1.87
2019-05-30T02:10:35.576Z,1.23
2019-05-30T02:12:40.322Z,1.37
2019-05-30T02:14:44.990Z,2.23
2019-05-30T02:16:49.763Z,1.47
2019-05-30T02:18:54.509Z,1.57
2019-05-30T02:20:59.562Z,0.90
2019-05-30T02:23:06.134Z,1.27
2019-05-30T02:25:10.719Z,1.23
2019-05-30T02:27:15.417Z,1.07
2019-05-30T02:29:20.160Z,1.07
2019-05-30T02:31:38.628Z,0.80
2019-05-30T02:33:31.335Z,1.17
2019-05-30T02:35:36.115Z,1.33
2019-05-30T02:37:40.868Z,4.57
2019-05-30T02:39:45.608Z,2.20
2019-05-30T02:41:50.298Z,1.10
2019-05-30T02:43:54.969Z,1.20
2019-05-30T02:46:00.951Z,1.00
2019-05-30T02:48:07.323Z,1.80
2019-05-30T02:50:14.058Z,1.93
2019-05-30T02:52:18.719Z,1.00
2019-05-30T02:54:23.469Z,2.10
2019-05-30T02:56:28.228Z,1.20
2019-05-30T02:58:32.947Z,0.87
2019-05-30T03:00:37.680Z,1.83
2019-05-30T03:02:43.603Z,1.10
2019-05-30T03:04:48.377Z,1.40
2019-05-30T03:06:53.131Z,1.07
2019-05-30T03:08:57.849Z,0.93
2019-05-30T03:11:04.442Z,0.80
2019-05-30T03:13:10.633Z,0.60
2019-05-30T03:15:15.911Z,1.00
2019-05-30T03:17:20.842Z,1.53
2019-05-30T03:19:25.593Z,0.70
2019-05-30T03:21:30.473Z,0.73
2019-05-30T03:23:35.233Z,0.87
2019-05-30T03:25:39.977Z,1.27
2019-05-30T03:27:44.757Z,1.17
2019-05-30T03:29:49.496Z,1.97
2019-05-30T03:31:54.240Z,1.43
2019-05-30T03:33:59.016Z,1.10
2019-05-30T03:36:28.265Z,1.03
2019-05-30T03:38:22.905Z,0.80
2019-05-30T03:40:29.356Z,1.43
2019-05-30T03:42:33.982Z,0.60
2019-05-30T03:44:38.770Z,0.90
2019-05-30T03:46:49.813Z,1.63
2019-05-30T03:48:55.568Z,0.70
2019-05-30T03:51:00.922Z,0.70
2019-05-30T03:53:07.375Z,0.90
2019-05-30T03:55:14.542Z,1.20
2019-05-30T03:57:21.773Z,0.80
2019-05-30T03:59:32.582Z,0.97
2019-05-30T04:02:02.032Z,0.60
2019-05-30T04:04:12.104Z,0.70
2019-05-30T04:06:23.270Z,0.90
2019-05-30T04:08:29.778Z,0.60
2019-05-30T04:10:37.024Z,0.50
2019-05-30T04:12:50.932Z,2.97
2019-05-30T04:14:58.932Z,1.00
2019-05-30T04:17:23.143Z,0.57
2019-05-30T04:19:27.896Z,1.03
2019-05-30T04:21:32.633Z,0.53
2019-05-30T04:23:37.448Z,1.33
2019-05-30T04:25:42.186Z,0.50
2019-05-30T04:27:46.957Z,0.90
2019-05-30T04:29:51.769Z,0.63
2019-05-30T04:31:56.547Z,0.83
2019-05-30T04:34:01.305Z,0.90
2019-05-30T04:36:06.371Z,0.70
2019-05-30T04:38:30.475Z,0.90
2019-05-30T04:40:35.248Z,0.53
2019-05-30T04:42:39.994Z,0.70
2019-05-30T04:44:44.738Z,0.60
2019-05-30T04:46:49.529Z,0.63
2019-05-30T04:48:54.271Z,0.83
2019-05-30T04:50:58.953Z,0.60
2019-05-30T04:53:03.737Z,0.57
2019-05-30T04:55:10.509Z,0.80
2019-05-30T04:57:15.080Z,1.40
2019-05-30T04:59:22.329Z,1.27
2019-05-30T05:01:27.126Z,0.80
2019-05-30T05:03:45.205Z,1.00
2019-05-30T05:05:38.243Z,1.33
2019-05-30T05:07:43.031Z,1.27
2019-05-30T05:09:47.786Z,1.10
2019-05-30T05:11:52.567Z,1.07
2019-05-30T05:13:57.337Z,1.20
2019-05-30T05:16:02.020Z,0.97
2019-05-30T05:18:06.862Z,0.90
2019-05-30T05:20:12.955Z,0.90
2019-05-30T05:22:19.031Z,0.93
2019-05-30T05:24:24.145Z,1.47
2019-05-30T05:26:28.898Z,1.07
2019-05-30T05:28:33.658Z,0.93
2019-05-30T05:30:38.376Z,0.87
2019-05-30T05:32:43.138Z,1.37
2019-05-30T05:34:47.905Z,1.83
2019-05-30T05:36:52.647Z,1.93
2019-05-30T05:38:58.479Z,1.40
2019-05-30T05:41:03.312Z,1.13
2019-05-30T05:43:08.055Z,1.87
2019-05-30T05:45:12.749Z,2.07
2019-05-30T05:47:18.480Z,1.20
2019-05-30T05:49:24.789Z,1.53
2019-05-30T05:51:29.699Z,1.13
2019-05-30T05:53:34.428Z,1.50
2019-05-30T05:55:39.382Z,1.50
2019-05-30T05:57:44.151Z,1.10
2019-05-30T05:59:48.866Z,1.27
2019-05-30T06:01:53.620Z,1.20
2019-05-30T06:04:12.007Z,1.70
2019-05-30T06:06:04.776Z,3.03
2019-05-30T06:08:09.525Z,1.10
2019-05-30T06:10:14.271Z,4.10
2019-05-30T06:12:19.675Z,1.50
2019-05-30T06:14:24.557Z,1.67
2019-05-30T06:16:29.299Z,2.00
2019-05-30T06:18:34.001Z,0.97
2019-05-30T06:20:38.765Z,1.33
2019-05-30T06:22:43.449Z,1.10
2019-05-30T06:24:48.223Z,1.10
2019-05-30T06:26:53.959Z,2.07
2019-05-30T06:28:58.693Z,1.77
2019-05-30T06:31:03.469Z,1.90
2019-05-30T06:33:08.219Z,1.30
2019-05-30T06:35:13.022Z,1.33
2019-05-30T06:37:19.088Z,2.03
2019-05-30T06:39:23.970Z,1.87
2019-05-30T06:41:29.756Z,1.33
2019-05-30T06:43:34.598Z,1.80
2019-05-30T06:45:39.378Z,1.20
2019-05-30T06:47:44.156Z,1.67
2019-05-30T06:49:48.841Z,1.30
2019-05-30T06:51:53.601Z,1.70
2019-05-30T06:53:58.401Z,2.60
2019-05-30T06:56:03.164Z,1.27
2019-05-30T06:58:07.988Z,1.20
2019-05-30T07:00:15.952Z,1.30
2019-05-30T07:02:22.127Z,1.13
2019-05-30T07:04:27.830Z,1.10
2019-05-30T07:06:33.894Z,1.90
2019-05-30T07:08:38.967Z,1.57
2019-05-30T07:10:43.695Z,2.13
2019-05-30T07:12:48.486Z,2.63
2019-05-30T07:14:53.262Z,1.30
2019-05-30T07:16:57.988Z,1.37
2019-05-30T07:19:02.682Z,1.60
2019-05-30T07:21:07.707Z,1.63
2019-05-30T07:23:12.459Z,1.10
2019-05-30T07:25:17.229Z,2.87
2019-05-30T07:27:21.903Z,1.20
2019-05-30T07:29:27.879Z,1.90
2019-05-30T07:31:32.743Z,1.67
2019-05-30T07:33:37.474Z,1.20
2019-05-30T07:35:42.151Z,1.57
2019-05-30T07:37:47.354Z,2.13
2019-05-30T07:39:52.111Z,1.93
2019-05-30T07:42:06.252Z,1.73
2019-05-30T07:44:03.471Z,2.30
2019-05-30T07:46:08.151Z,1.40
2019-05-30T07:48:12.896Z,2.27
2019-05-30T07:50:18.641Z,1.40
2019-05-30T07:52:23.402Z,1.97
2019-05-30T07:54:28.858Z,1.93
2019-05-30T07:56:33.749Z,1.77
2019-05-30T07:58:38.530Z,3.00
2019-05-30T08:00:43.265Z,2.00
2019-05-30T08:02:47.965Z,1.60
2019-05-30T08:04:52.709Z,1.33
2019-05-30T08:06:57.450Z,1.70
2019-05-30T08:09:02.155Z,1.50
2019-05-30T08:11:09.942Z,3.90
2019-05-30T08:13:14.529Z,2.37
2019-05-30T08:15:19.271Z,2.73
2019-05-30T08:17:24.017Z,1.53
2019-05-30T08:19:29.669Z,2.80
2019-05-30T08:21:34.530Z,1.63
2019-05-30T08:23:39.271Z,1.80
2019-05-30T08:25:44.039Z,1.93
2019-05-30T08:27:48.801Z,2.70
2019-05-30T08:29:53.467Z,3.00
2019-05-30T08:32:17.618Z,1.63
2019-05-30T08:34:22.359Z,1.70
2019-05-30T08:36:27.044Z,1.63
2019-05-30T08:38:33.110Z,2.03
2019-05-30T08:40:37.963Z,1.77
2019-05-30T08:42:42.673Z,1.80
2019-05-30T08:44:47.414Z,1.90
2019-05-30T08:46:52.237Z,2.67
2019-05-30T08:48:56.958Z,2.60
2019-05-30T08:51:02.505Z,2.83
2019-05-30T08:53:07.189Z,1.83
2019-05-30T08:55:12.018Z,1.67
2019-05-30T08:57:16.891Z,1.87
2019-05-30T08:59:22.771Z,1.90
2019-05-30T09:01:27.512Z,2.50
2019-05-30T09:03:33.355Z,3.40
2019-05-30T09:05:38.693Z,3.30
2019-05-30T09:07:44.730Z,2.60
2019-05-30T09:09:49.524Z,2.90
2019-05-30T09:11:54.314Z,3.63
2019-05-30T09:13:58.989Z,2.37
2019-05-30T09:16:03.659Z,2.20
2019-05-30T09:18:08.428Z,2.17
2019-05-30T09:20:13.134Z,2.97
2019-05-30T09:22:17.882Z,2.30
2019-05-30T09:24:22.588Z,2.30
2019-05-30T09:26:28.322Z,2.60
2019-05-30T09:28:51.596Z,3.97
2019-05-30T09:30:56.375Z,4.50
2019-05-30T09:33:01.134Z,2.57
2019-05-30T09:35:07.050Z,2.57
2019-05-30T09:37:11.725Z,2.47
2019-05-30T09:39:16.513Z,2.27
2019-05-30T09:41:21.265Z,2.90
2019-05-30T09:43:26.012Z,3.57
2019-05-30T09:45:30.803Z,2.47
2019-05-30T09:47:54.995Z,2.53
2019-05-30T09:50:03.075Z,2.17
2019-05-30T09:52:06.109Z,2.50
2019-05-30T09:54:10.893Z,2.23
2019-05-30T09:56:15.648Z,4.20
2019-05-30T09:58:20.422Z,2.80
2019-05-30T10:00:25.178Z,2.97
2019-05-30T10:02:30.305Z,3.27
2019-05-30T10:04:35.085Z,2.60
2019-05-30T10:06:40.194Z,3.23
2019-05-30T10:08:46.537Z,2.80
2019-05-30T10:10:51.601Z,3.90
2019-05-30T10:12:56.544Z,2.80
2019-05-30T10:15:01.424Z,4.40
2019-05-30T10:17:06.259Z,2.67
2019-05-30T10:19:10.935Z,2.87
2019-05-30T10:21:15.601Z,3.03
2019-05-30T10:23:20.458Z,3.10
2019-05-30T10:25:25.168Z,3.67
2019-05-30T10:27:29.950Z,3.13
2019-05-30T10:29:34.672Z,1.90
2019-05-30T10:31:39.645Z,3.27
2019-05-30T10:33:45.931Z,2.80
2019-05-30T10:35:51.645Z,2.27
2019-05-30T10:37:56.946Z,2.50
2019-05-30T10:40:01.655Z,4.97
2019-05-30T10:42:06.426Z,2.33
2019-05-30T10:44:11.174Z,3.07
2019-05-30T10:46:15.919Z,3.20
2019-05-30T10:48:21.142Z,2.20
2019-05-30T10:50:26.049Z,3.77
2019-05-30T10:52:30.944Z,2.17
2019-05-30T10:54:35.726Z,3.77
2019-05-30T10:56:40.475Z,1.80
2019-05-30T10:58:46.590Z,2.30
2019-05-30T11:00:55.685Z,2.30
2019-05-30T11:03:00.542Z,2.07
2019-05-30T11:05:06.928Z,2.37
2019-05-30T11:07:32.601Z,2.60
2019-05-30T11:09:40.597Z,2.00
2019-05-30T11:11:46.589Z,2.70
2019-05-30T11:13:53.307Z,3.63
2019-05-30T11:15:58.072Z,2.27
2019-05-30T11:18:02.838Z,2.43
2019-05-30T11:20:07.568Z,2.37
2019-05-30T11:22:12.231Z,2.77
2019-05-30T11:24:16.986Z,2.67
2019-05-30T11:26:21.693Z,3.17
2019-05-30T11:28:26.432Z,1.90
2019-05-30T11:30:31.170Z,3.30
2019-05-30T11:32:35.928Z,2.10
2019-05-30T11:34:40.722Z,3.40
2019-05-30T11:36:45.450Z,3.80
2019-05-30T11:38:52.413Z,3.90
2019-05-30T11:40:57.632Z,3.10
2019-05-30T11:43:02.379Z,3.23
2019-05-30T11:45:09.957Z,2.10
2019-05-30T11:47:14.742Z,2.57
2019-05-30T11:49:19.499Z,2.57
2019-05-30T11:51:24.236Z,2.10
2019-05-30T11:53:29.001Z,3.27
2019-05-30T11:55:33.960Z,2.40
2019-05-30T11:57:38.780Z,2.80
2019-05-30T11:59:43.578Z,3.20
2019-05-30T12:01:48.259Z,1.97
2019-05-30T12:03:53.010Z,2.20
2019-05-30T12:05:58.692Z,3.50
2019-05-30T12:08:03.519Z,2.70
2019-05-30T12:10:08.278Z,2.10
2019-05-30T12:12:13.141Z,3.50
2019-05-30T12:14:21.267Z,2.83
2019-05-30T12:16:24.555Z,3.00
2019-05-30T12:18:29.338Z,2.80
2019-05-30T12:20:34.372Z,2.50
2019-05-30T12:22:39.139Z,2.03
2019-05-30T12:24:43.911Z,2.17
2019-05-30T12:26:48.587Z,2.30
2019-05-30T12:28:54.106Z,2.47
2019-05-30T12:31:03.263Z,2.30
2019-05-30T12:33:05.432Z,3.10
2019-05-30T12:35:11.803Z,2.67
2019-05-30T12:37:18.115Z,2.17
2019-05-30T12:39:24.447Z,1.70
2019-05-30T12:41:29.193Z,3.37
2019-05-30T12:43:33.881Z,1.90
2019-05-30T12:45:38.654Z,3.13
2019-05-30T12:47:43.397Z,2.07
2019-05-30T12:49:48.137Z,1.73
2019-05-30T12:51:54.063Z,2.80
2019-05-30T12:53:58.885Z,1.60
2019-05-30T12:56:23.073Z,2.30
2019-05-30T12:58:27.851Z,2.20
2019-05-30T13:00:35.836Z,2.27
2019-05-30T13:02:40.578Z,3.27
2019-05-30T13:04:45.352Z,3.13
2019-05-30T13:06:54.058Z,2.70
2019-05-30T13:08:57.496Z,3.57
2019-05-30T13:11:03.670Z,3.90
2019-05-30T13:13:08.575Z,3.57
2019-05-30T13:15:13.411Z,4.30
2019-05-30T13:17:18.175Z,6.37
2019-05-30T13:19:22.913Z,3.57
2019-05-30T13:21:27.582Z,4.47
2019-05-30T13:23:32.460Z,4.70
2019-05-30T13:25:37.129Z,4.77
2019-05-30T13:27:41.941Z,4.60
2019-05-30T13:29:46.662Z,3.53
2019-05-30T13:31:51.384Z,4.10
2019-05-30T13:33:56.780Z,3.97
2019-05-30T13:36:01.615Z,2.57
2019-05-30T13:38:07.375Z,5.30
2019-05-30T13:40:24.155Z,2.17
2019-05-30T13:42:19.024Z,1.97
2019-05-30T13:44:43.348Z,2.03
2019-05-30T13:46:48.105Z,2.00
2019-05-30T13:48:52.852Z,1.53
2019-05-30T13:50:58.626Z,2.73
2019-05-30T13:53:03.495Z,1.73
2019-05-30T13:55:08.901Z,2.03
2019-05-30T13:57:15.142Z,1.93
2019-05-30T13:59:19.916Z,2.90
2019-05-30T14:01:24.768Z,1.80
2019-05-30T14:03:29.602Z,3.03
2019-05-30T14:05:34.348Z,1.53
2019-05-30T14:07:39.258Z,3.27
2019-05-30T14:09:43.993Z,4.40
2019-05-30T14:11:48.807Z,3.87
2019-05-30T14:13:53.587Z,4.73
2019-05-30T14:15:59.258Z,5.07
2019-05-30T14:18:07.259Z,3.60
2019-05-30T14:20:12.273Z,3.50
2019-05-30T14:22:17.034Z,6.37
2019-05-30T14:24:21.769Z,3.70
2019-05-30T14:26:26.550Z,3.13
2019-05-30T14:28:31.222Z,2.47
2019-05-30T14:30:35.962Z,2.60
2019-05-30T14:32:40.718Z,2.03
2019-05-30T14:34:45.457Z,1.20
2019-05-30T14:36:50.221Z,1.00
2019-05-30T14:38:58.216Z,0.90
2019-05-30T14:41:02.805Z,1.07
2019-05-30T14:43:07.836Z,0.70
2019-05-30T14:45:14.703Z,1.00
2019-05-30T14:47:19.599Z,1.03
2019-05-30T14:49:24.354Z,0.77
2019-05-30T14:51:29.125Z,0.60
2019-05-30T14:53:33.904Z,1.30
2019-05-30T14:55:38.577Z,0.80
2019-05-30T14:57:43.321Z,0.80
2019-05-30T14:59:48.011Z,1.00
2019-05-30T15:01:52.757Z,0.47
2019-05-30T15:03:57.503Z,0.67
2019-05-30T15:06:02.298Z,0.67
2019-05-30T15:08:08.328Z,0.50
2019-05-30T15:10:13.165Z,2.60
2019-05-30T15:12:17.959Z,0.50
2019-05-30T15:14:22.713Z,0.40
2019-05-30T15:16:27.490Z,1.07
2019-05-30T15:18:32.221Z,1.27
2019-05-30T15:20:37.118Z,0.50
2019-05-30T15:22:41.947Z,0.50
2019-05-30T15:24:47.555Z,0.93
2019-05-30T15:26:52.303Z,0.63
2019-05-30T15:28:57.087Z,0.43
2019-05-30T15:31:01.831Z,2.50
2019-05-30T15:33:06.611Z,0.30
2019-05-30T15:35:12.769Z,0.77
2019-05-30T15:37:17.579Z,0.30
2019-05-30T15:39:32.441Z,0.73
2019-05-30T15:41:28.958Z,0.30
2019-05-30T15:43:33.722Z,0.40
2019-05-30T15:45:38.479Z,0.50
2019-05-30T15:47:43.235Z,0.30
2019-05-30T15:49:51.854Z,0.40
2019-05-30T15:51:54.373Z,0.30
2019-05-30T15:53:59.147Z,1.50
2019-05-30T15:56:03.888Z,0.30
2019-05-30T15:58:09.390Z,1.40
2019-05-30T16:00:16.247Z,0.40
2019-05-30T16:02:20.945Z,0.53
2019-05-30T16:04:25.720Z,0.77
2019-05-30T16:06:30.474Z,0.50
2019-05-30T16:08:35.237Z,0.60
2019-05-30T16:10:40.016Z,2.50
2019-05-30T16:12:44.762Z,0.93
2019-05-30T16:14:49.509Z,2.00
2019-05-30T16:16:54.293Z,1.33
2019-05-30T16:19:14.781Z,0.83
2019-05-30T16:21:05.422Z,0.57
2019-05-30T16:23:10.096Z,0.50
2019-05-30T16:25:15.615Z,1.00
2019-05-30T16:27:21.778Z,1.07
2019-05-30T16:29:26.589Z,0.47
2019-05-30T16:31:31.350Z,1.37
2019-05-30T16:33:36.135Z,2.73
2019-05-30T16:35:40.894Z,1.23
2019-05-30T16:37:46.080Z,0.90
2019-05-30T16:40:05.235Z,0.60
2019-05-30T16:41:57.245Z,1.53
2019-05-30T16:44:02.088Z,2.23
2019-05-30T16:46:07.354Z,0.70
2019-05-30T16:48:12.084Z,1.47
2019-05-30T16:50:16.830Z,0.77
2019-05-30T16:52:21.526Z,0.97
2019-05-30T16:54:27.503Z,0.93
2019-05-30T16:56:32.384Z,0.57
2019-05-30T16:58:37.082Z,0.80
2019-05-30T17:00:41.841Z,1.27
2019-05-30T17:02:46.630Z,0.73
2019-05-30T17:04:51.404Z,1.60
2019-05-30T17:06:56.201Z,1.17
2019-05-30T17:09:00.960Z,1.50
2019-05-30T17:11:06.188Z,0.53
2019-05-30T17:13:10.892Z,0.73
2019-05-30T17:15:15.753Z,0.40
2019-05-30T17:17:22.060Z,0.70
2019-05-30T17:19:26.885Z,0.70
2019-05-30T17:21:31.600Z,0.67
2019-05-30T17:23:36.341Z,0.63
2019-05-30T17:25:41.077Z,0.80
2019-05-30T17:27:45.764Z,0.70
2019-05-30T17:29:50.555Z,0.53
2019-05-30T17:31:55.314Z,0.70
2019-05-30T17:34:00.107Z,2.03
2019-05-30T17:36:05.232Z,1.43
2019-05-30T17:38:09.981Z,2.57
2019-05-30T17:40:15.699Z,1.73
2019-05-30T17:42:20.849Z,0.90
2019-05-30T17:44:25.685Z,1.83
2019-05-30T17:46:30.351Z,0.83
2019-05-30T17:48:35.961Z,1.50
2019-05-30T17:50:40.697Z,2.00
2019-05-30T17:52:45.471Z,0.73
2019-05-30T17:54:50.159Z,1.00
2019-05-30T17:56:54.911Z,1.37
2019-05-30T17:58:59.638Z,1.77
2019-05-30T18:01:05.375Z,1.40
2019-05-30T18:03:10.231Z,1.50
2019-05-30T18:05:16.481Z,3.57
2019-05-30T18:07:21.229Z,1.30
2019-05-30T18:09:27.090Z,0.87
2019-05-30T18:11:31.985Z,1.07
2019-05-30T18:13:40.266Z,2.63
2019-05-30T18:15:48.019Z,1.30
2019-05-30T18:17:52.833Z,0.97
2019-05-30T18:20:00.289Z,1.33
2019-05-30T18:22:05.168Z,1.10
2019-05-30T18:24:09.944Z,1.35
2019-05-30T18:26:14.752Z,1.30
2019-05-30T18:28:21.442Z,1.30
2019-05-30T18:30:29.916Z,1.00
2019-05-30T18:32:34.710Z,1.40
2019-05-30T18:34:40.086Z,0.97
2019-05-30T18:36:47.098Z,3.40
2019-05-30T18:38:52.425Z,1.13
2019-05-30T18:41:10.283Z,1.30
2019-05-30T18:43:04.278Z,1.10
2019-05-30T18:45:10.789Z,1.07
2019-05-30T18:47:16.248Z,2.03
2019-05-30T18:49:21.238Z,1.63
2019-05-30T18:51:28.178Z,1.60
2019-05-30T18:53:33.641Z,0.67
2019-05-30T18:55:38.849Z,1.67
2019-05-30T18:57:45.485Z,2.03
2019-05-30T18:59:51.632Z,3.90
2019-05-30T19:01:56.559Z,1.90
2019-05-30T19:04:01.472Z,1.83
2019-05-30T19:06:06.890Z,1.50
2019-05-30T19:08:11.906Z,1.93
2019-05-30T19:10:16.902Z,1.40
2019-05-30T19:12:24.163Z,1.80
2019-05-30T19:14:31.298Z,1.50
2019-05-30T19:16:37.028Z,1.97
2019-05-30T19:18:42.230Z,1.73
2019-05-30T19:20:47.162Z,1.73
2019-05-30T19:22:51.993Z,1.63
2019-05-30T19:24:56.750Z,1.90
2019-05-30T19:27:01.516Z,2.33
2019-05-30T19:29:07.399Z,2.50
2019-05-30T19:31:12.082Z,1.30
2019-05-30T19:33:20.544Z,1.60
2019-05-30T19:35:23.246Z,1.30
2019-05-30T19:37:28.992Z,2.47
2019-05-30T19:39:33.891Z,1.77
2019-05-30T19:41:53.454Z,1.40
2019-05-30T19:43:44.997Z,1.00
2019-05-30T19:45:49.987Z,1.33
2019-05-30T19:47:54.725Z,2.10
2019-05-30T19:50:01.341Z,1.50
2019-05-30T19:52:05.857Z,1.27
2019-05-30T19:54:10.592Z,1.73
2019-05-30T19:56:15.350Z,1.30
2019-05-30T19:58:21.199Z,1.60
2019-05-30T20:00:26.052Z,2.43
2019-05-30T20:02:31.901Z,1.00
2019-05-30T20:04:36.644Z,1.30
2019-05-30T20:06:41.307Z,1.27
2019-05-30T20:08:55.081Z,1.50
2019-05-30T20:10:52.386Z,1.03
2019-05-30T20:12:57.145Z,2.00
2019-05-30T20:15:03.340Z,1.77
2019-05-30T20:17:08.152Z,2.17
2019-05-30T20:19:13.244Z,1.60
2019-05-30T20:21:18.050Z,1.63
2019-05-30T20:23:22.793Z,1.67
2019-05-30T20:25:27.487Z,2.13
2019-05-30T20:27:32.601Z,2.50
2019-05-30T20:29:39.528Z,1.70
2019-05-30T20:31:45.811Z,1.33
2019-05-30T20:33:50.676Z,1.30
2019-05-30T20:35:55.468Z,1.43
2019-05-30T20:38:01.632Z,1.23
2019-05-30T20:40:08.301Z,1.00
2019-05-30T20:42:19.245Z,0.93
2019-05-30T20:44:19.469Z,1.40
2019-05-30T20:46:24.252Z,0.77
2019-05-30T20:48:29.005Z,3.17
2019-05-30T20:50:34.933Z,2.57
2019-05-30T20:52:42.278Z,0.93
2019-05-30T20:54:46.282Z,1.93
2019-05-30T20:56:51.947Z,1.33
2019-05-30T20:58:57.872Z,3.10
2019-05-30T21:01:03.209Z,1.43
2019-05-30T21:03:08.232Z,1.27
2019-05-30T21:05:12.970Z,1.47
2019-05-30T21:07:18.037Z,1.73
2019-05-30T21:09:28.764Z,1.77
2019-05-30T21:11:29.804Z,1.57
2019-05-30T21:13:36.139Z,2.00
2019-05-30T21:15:41.661Z,1.40
2019-05-30T21:17:46.711Z,1.10
2019-05-30T21:19:51.457Z,1.47
2019-05-30T21:21:56.294Z,1.70
2019-05-30T21:24:00.978Z,1.10
2019-05-30T21:26:05.646Z,1.87
2019-05-30T21:28:10.416Z,2.73
2019-05-30T21:30:16.348Z,1.77
2019-05-30T21:32:21.159Z,1.63
2019-05-30T21:34:26.062Z,2.53
2019-05-30T21:36:30.935Z,1.57
2019-05-30T21:38:35.654Z,1.40
2019-05-30T21:40:40.433Z,2.83
2019-05-30T21:43:04.285Z,1.47
2019-05-30T21:44:52.994Z,1.53
2019-05-30T21:46:57.872Z,1.00
2019-05-30T21:49:03.123Z,1.93
2019-05-30T21:51:07.866Z,1.67
2019-05-30T21:53:12.536Z,1.60
2019-05-30T21:55:17.237Z,0.93
2019-05-30T21:57:22.008Z,1.00
2019-05-30T21:59:26.750Z,2.03
2019-05-30T22:01:32.460Z,1.70
2019-05-30T22:03:37.380Z,1.70
2019-05-30T22:05:42.737Z,1.80
2019-05-30T22:07:47.633Z,1.27
2019-05-30T22:09:53.477Z,1.20
2019-05-30T22:11:58.225Z,1.50
2019-05-30T22:14:03.017Z,1.47
2019-05-30T22:16:07.767Z,1.00
2019-05-30T22:18:12.496Z,2.00
2019-05-30T22:20:17.253Z,2.27
2019-05-30T22:22:41.888Z,2.10
2019-05-30T22:24:48.401Z,1.50
2019-05-30T22:26:54.287Z,1.70
2019-05-30T22:28:58.977Z,1.93
2019-05-30T22:31:03.645Z,2.13
2019-05-30T22:33:08.334Z,2.20
2019-05-30T22:35:13.093Z,1.10
2019-05-30T22:37:17.768Z,1.00
2019-05-30T22:39:22.516Z,1.63
2019-05-30T22:41:27.206Z,0.80
2019-05-30T22:43:51.336Z,0.73
2019-05-30T22:45:56.801Z,1.00
2019-05-30T22:48:01.754Z,0.70
2019-05-30T22:50:07.354Z,1.27
2019-05-30T22:52:12.090Z,0.60
2019-05-30T22:54:16.848Z,0.80
2019-05-30T22:56:21.597Z,0.83
2019-05-30T22:58:26.273Z,0.60
2019-05-30T23:00:31.023Z,0.73
2019-05-30T23:02:35.778Z,1.03
2019-05-30T23:04:40.495Z,1.27
2019-05-30T23:06:46.253Z,1.47
2019-05-30T23:08:51.188Z,1.60
2019-05-30T23:10:57.050Z,0.83
2019-05-30T23:13:01.843Z,1.00
2019-05-30T23:15:06.748Z,1.80
2019-05-30T23:17:11.565Z,1.53
2019-05-30T23:19:16.291Z,0.60
2019-05-30T23:21:21.039Z,0.90
2019-05-30T23:23:25.818Z,0.60
2019-05-30T23:25:30.562Z,0.87
2019-05-30T23:27:35.641Z,1.13
2019-05-30T23:29:40.409Z,1.53
2019-05-30T23:31:45.134Z,1.00
2019-05-30T23:33:50.270Z,3.10
2019-05-30T23:35:56.435Z,1.27
2019-05-30T23:38:01.395Z,1.27
2019-05-30T23:40:06.160Z,1.03
2019-05-30T23:42:10.912Z,1.23
2019-05-30T23:44:15.582Z,1.50
2019-05-30T23:46:20.328Z,1.73
2019-05-30T23:48:25.463Z,1.63
2019-05-30T23:50:30.224Z,0.73
2019-05-30T23:52:34.950Z,1.03
2019-05-30T23:54:39.738Z,1.00
2019-05-30T23:56:44.485Z,1.73
2019-05-30T23:58:50.426Z,2.33
